Wetterdaten der Wetterstation 22117 Öjendorf (Hamburg)

Letzte Wetterlage 25.04.2015 23:16
Wetterdiagramm
Tabellarische Darstellung
Datum Temperatur Windchill Feuchte Luftdruck Windrichtung Windstärke Niederschlag
25.04.2015 23:26 12,2 °C 12,2 °C 90 % 1005,7 hPa 4,3 l/m²
25.04.2015 23:16 12,3 °C 12,3 °C 90 % 1005,7 hPa 3,9 l/m²
25.04.2015 23:06 12,4 °C 12,4 °C 89 % 1005,7 hPa 3,6 l/m²
25.04.2015 22:56 12,6 °C 12,6 °C 88 % 1005,7 hPa 3,2 l/m²
25.04.2015 22:46 12,7 °C 12,7 °C 87 % 1005,6 hPa 2,8 l/m²
25.04.2015 22:36 12,8 °C 12,8 °C 86 % 1005,6 hPa 2,7 l/m²
25.04.2015 22:26 12,8 °C 12,8 °C 85 % 1005,6 hPa 2,6 l/m²
25.04.2015 22:16 12,8 °C 12,8 °C 85 % 1005,6 hPa 2,6 l/m²
25.04.2015 22:06 12,9 °C 12,9 °C 85 % 1005,6 hPa 2,6 l/m²
25.04.2015 21:56 12,9 °C 12,9 °C 85 % 1005,6 hPa 2,6 l/m²
25.04.2015 21:46 13,0 °C 13,0 °C 85 % 1005,6 hPa 2,6 l/m²
25.04.2015 21:36 13,0 °C 13,0 °C 85 % 1005,6 hPa 2,6 l/m²
25.04.2015 21:26 13,0 °C 13,0 °C 85 % 1005,6 hPa 2,6 l/m²
25.04.2015 21:16 13,1 °C 13,1 °C 85 % 1005,6 hPa 2,6 l/m²
25.04.2015 21:06 13,1 °C 13,1 °C 85 % 1005,6 hPa 2,6 l/m²
25.04.2015 20:56 13,2 °C 13,2 °C 84 % 1005,5 hPa 2,6 l/m²
25.04.2015 20:46 13,3 °C 13,3 °C 84 % 1005,5 hPa 2,6 l/m²
25.04.2015 20:36 13,3 °C 13,3 °C 83 % 1005,5 hPa 2,6 l/m²
25.04.2015 20:26 13,6 °C 13,6 °C 82 % 1005,4 hPa 2,5 l/m²
25.04.2015 20:16 13,6 °C 13,6 °C 82 % 1005,4 hPa 2,5 l/m²
25.04.2015 20:06 13,7 °C 13,7 °C 81 % 1005,3 hPa 2,5 l/m²
25.04.2015 19:56 13,8 °C 13,8 °C 80 % 1005,3 hPa 2,5 l/m²
25.04.2015 19:46 13,8 °C 13,8 °C 80 % 1005,3 hPa 2,5 l/m²
25.04.2015 19:36 14,0 °C 14,0 °C 78 % 1005,4 hPa 2,5 l/m²
25.04.2015 19:26 14,2 °C 14,2 °C 77 % 1005,4 hPa 2,5 l/m²
Neue Wetterwarnung

Neue Niederschlagsmeldung
Neue Meldung
Regen Liveticker
    sehr starker Regen/Gewitter
    starker Regen/Gewitter
    mäßiger bis starker Regen
    mäßiger Regen
    leichter bis mäßiger Regen
    kein Regen